OEB weather

Branch County Memorial Airport
Coldwater, Michigan, United States

Public forecast

Using degrees Fahrenheit for public forecast. Weather courtesy of forecast.io.

METAR (pilot weather report)

Retrieved 2019/04/25 21:35 UTC (0 seconds ago):

KOEB 252135Z AUTO 16006KT 10SM SCT025 BKN048 OVC070 17/12 A2971 RMK AO2 T01700118

TAF (pilot weather forecast)

Closest forecast is W K Kellogg Airport, 24.1 nm (44.7 km) NNW. Retrieved 2019/04/25 18:40 UTC (3 hours ago):

TAF KBTL 251738Z 2518/2618 13005KT P6SM BKN028 FM260600 33012KT 6SM -RA BR OVC020 FM261400 32015G25KT P6SM SCT050